createdAt,value
2022-10-28T00:00:52.206Z,0.68
2022-10-28T00:03:20.058Z,0.43
2022-10-28T00:05:47.529Z,0.55
2022-10-28T00:08:15.248Z,0.52
2022-10-28T00:10:44.090Z,0.60
2022-10-28T00:13:11.566Z,0.38
2022-10-28T00:15:38.974Z,0.50
2022-10-28T00:18:06.446Z,0.40
2022-10-28T00:20:33.882Z,0.40
2022-10-28T00:23:01.331Z,0.70
2022-10-28T00:25:28.853Z,0.57
2022-10-28T00:27:56.434Z,0.52
2022-10-28T00:30:23.985Z,0.50
2022-10-28T00:32:52.836Z,0.50
2022-10-28T00:35:20.739Z,0.52
2022-10-28T00:37:48.660Z,2.03
2022-10-28T00:40:16.506Z,1.00
2022-10-28T00:42:44.762Z,1.63
2022-10-28T00:53:38.962Z,0.75
2022-10-28T01:35:21.835Z,0.55
2022-10-28T01:38:08.995Z,0.77
2022-10-28T02:00:10.687Z,1.02
2022-10-28T02:05:27.951Z,0.50
2022-10-28T02:13:32.701Z,0.50
2022-10-28T02:19:07.741Z,0.63
2022-10-28T02:24:41.250Z,0.90
2022-10-28T02:32:40.054Z,0.55
2022-10-28T02:43:35.808Z,0.95
2022-10-28T03:11:13.696Z,1.17
2022-10-28T03:24:45.046Z,0.80
2022-10-28T03:29:56.885Z,0.75
2022-10-28T03:32:24.565Z,0.85
2022-10-28T03:34:55.759Z,1.30
2022-10-28T03:37:23.221Z,1.00
2022-10-28T03:39:50.893Z,0.80
2022-10-28T03:42:18.327Z,0.65
2022-10-28T03:44:45.970Z,0.22
2022-10-28T03:47:13.446Z,0.57
2022-10-28T03:49:42.591Z,0.63
2022-10-28T03:52:12.884Z,1.52
2022-10-28T03:54:40.305Z,0.68
2022-10-28T03:57:07.817Z,0.75
2022-10-28T03:59:35.423Z,0.50
2022-10-28T04:02:03.034Z,1.15
2022-10-28T04:04:30.869Z,0.70
2022-10-28T04:06:58.788Z,0.70
2022-10-28T04:09:26.195Z,0.43
2022-10-28T04:11:53.638Z,1.20
2022-10-28T04:14:21.115Z,0.95
2022-10-28T04:16:48.568Z,0.70
2022-10-28T04:19:16.046Z,0.90
2022-10-28T04:21:43.509Z,1.33
2022-10-28T04:24:10.928Z,0.88
2022-10-28T04:26:38.385Z,1.52
2022-10-28T04:29:05.914Z,1.20
2022-10-28T04:31:33.349Z,0.70
2022-10-28T04:34:02.000Z,0.88
2022-10-28T04:36:29.439Z,1.00
2022-10-28T04:38:56.866Z,0.65
2022-10-28T04:41:25.444Z,0.80
2022-10-28T04:43:56.854Z,1.05
2022-10-28T04:46:24.310Z,0.90
2022-10-28T04:48:51.781Z,0.70
2022-10-28T04:51:19.191Z,0.65
2022-10-28T04:53:46.613Z,0.82
2022-10-28T04:56:14.112Z,1.17
2022-10-28T04:58:42.183Z,0.50
2022-10-28T05:01:10.364Z,1.60
2022-10-28T05:03:38.004Z,0.90
2022-10-28T05:06:05.815Z,1.00
2022-10-28T05:08:33.224Z,1.08
2022-10-28T05:11:00.722Z,1.17
2022-10-28T05:13:28.123Z,1.17
2022-10-28T05:15:55.540Z,0.82
2022-10-28T05:18:23.074Z,1.20
2022-10-28T05:20:55.353Z,1.23
2022-10-28T05:23:25.905Z,1.33
2022-10-28T05:25:57.395Z,1.20
2022-10-28T05:28:24.858Z,1.17
2022-10-28T05:30:52.335Z,1.35
2022-10-28T05:33:19.790Z,1.60
2022-10-28T05:35:47.511Z,1.10
2022-10-28T05:38:15.259Z,1.30
2022-10-28T05:40:42.690Z,1.48
2022-10-28T05:43:10.568Z,1.83
2022-10-28T05:45:38.220Z,1.40
2022-10-28T05:48:05.828Z,1.40
2022-10-28T05:50:33.293Z,1.15
2022-10-28T05:53:00.804Z,1.08
2022-10-28T05:55:29.009Z,1.88
2022-10-28T05:57:57.247Z,1.30
2022-10-28T06:00:26.097Z,1.77
2022-10-28T06:02:53.877Z,1.77
2022-10-28T06:05:21.655Z,1.60
2022-10-28T06:07:49.069Z,1.63
2022-10-28T06:10:17.112Z,1.63
2022-10-28T06:12:43.074Z,2.15
2022-10-28T06:15:10.635Z,1.88
2022-10-28T06:17:38.167Z,1.77
2022-10-28T06:20:05.826Z,1.70
2022-10-28T06:22:33.316Z,1.60
2022-10-28T06:25:00.800Z,1.42
2022-10-28T06:27:28.246Z,1.70
2022-10-28T06:29:55.667Z,1.25
2022-10-28T06:32:23.105Z,1.60
2022-10-28T06:34:50.604Z,2.22
2022-10-28T06:37:18.071Z,2.15
2022-10-28T06:39:50.354Z,1.65
2022-10-28T06:42:18.241Z,1.57
2022-10-28T06:44:46.706Z,1.92
2022-10-28T06:47:16.745Z,1.85
2022-10-28T06:49:44.236Z,1.30
2022-10-28T06:52:11.673Z,2.00
2022-10-28T06:54:39.095Z,1.80
2022-10-28T06:57:06.577Z,1.77
2022-10-28T06:59:34.229Z,1.80
2022-10-28T07:02:01.796Z,1.88
2022-10-28T07:04:29.482Z,2.40
2022-10-28T07:06:57.743Z,2.33
2022-10-28T07:09:25.294Z,1.60
2022-10-28T07:11:55.117Z,2.03
2022-10-28T07:14:23.537Z,1.95
2022-10-28T07:16:51.079Z,1.90
2022-10-28T07:19:22.467Z,1.65
2022-10-28T07:21:50.260Z,2.10
2022-10-28T07:24:17.618Z,2.33
2022-10-28T07:26:45.920Z,2.97
2022-10-28T07:29:13.422Z,2.00
2022-10-28T07:31:40.830Z,1.98
2022-10-28T07:34:08.255Z,1.90
2022-10-28T07:36:35.705Z,2.45
2022-10-28T07:39:03.545Z,2.75
2022-10-28T07:41:30.990Z,2.22
2022-10-28T07:43:58.546Z,2.00
2022-10-28T07:46:25.967Z,2.80
2022-10-28T07:48:53.438Z,2.00
2022-10-28T07:51:20.878Z,2.15
2022-10-28T07:53:48.862Z,2.58
2022-10-28T07:56:16.357Z,1.95
2022-10-28T07:58:45.761Z,2.65
2022-10-28T08:01:15.075Z,2.75
2022-10-28T08:03:42.590Z,2.38
2022-10-28T08:06:11.407Z,1.85
2022-10-28T08:08:38.863Z,2.50
2022-10-28T08:11:13.380Z,1.65
2022-10-28T08:13:41.176Z,2.28
2022-10-28T08:16:09.016Z,1.95
2022-10-28T08:18:37.104Z,2.70
2022-10-28T08:21:05.336Z,1.77
2022-10-28T08:23:32.765Z,3.67
2022-10-28T08:26:00.407Z,2.35
2022-10-28T08:28:27.898Z,2.25
2022-10-28T08:31:08.906Z,2.22
2022-10-28T08:33:37.381Z,2.25
2022-10-28T08:36:05.001Z,2.20
2022-10-28T08:38:32.477Z,2.38
2022-10-28T08:41:06.964Z,1.90
2022-10-28T08:43:52.657Z,1.98
2022-10-28T08:46:31.175Z,2.50
2022-10-28T08:48:58.749Z,1.92
2022-10-28T08:51:58.638Z,2.00
2022-10-28T08:54:36.121Z,2.30
2022-10-28T08:57:05.126Z,1.98
2022-10-28T08:59:34.799Z,2.05
2022-10-28T09:02:05.694Z,2.55
2022-10-28T09:04:45.007Z,1.83
2022-10-28T09:07:19.609Z,1.63
2022-10-28T09:09:47.714Z,2.42
2022-10-28T09:12:33.627Z,2.50
2022-10-28T09:15:03.871Z,1.90
2022-10-28T09:17:41.650Z,2.20
2022-10-28T09:20:19.478Z,1.95
2022-10-28T09:22:50.002Z,1.88
2022-10-28T09:25:31.004Z,1.83
2022-10-28T09:28:04.612Z,2.28
2022-10-28T09:30:32.049Z,1.65
2022-10-28T09:33:08.508Z,2.00
2022-10-28T09:35:40.701Z,2.20
2022-10-28T09:38:14.278Z,2.75
2022-10-28T09:40:43.962Z,2.33
2022-10-28T09:43:14.591Z,1.73
2022-10-28T09:45:45.158Z,2.05
2022-10-28T09:48:12.910Z,2.30
2022-10-28T09:50:40.663Z,2.05
2022-10-28T09:53:22.079Z,1.98
2022-10-28T09:55:50.614Z,1.92
2022-10-28T09:58:18.283Z,1.45
2022-10-28T10:00:48.589Z,1.75
2022-10-28T10:03:17.691Z,1.50
2022-10-28T10:05:47.180Z,1.55
2022-10-28T10:08:19.127Z,1.60
2022-10-28T10:10:53.856Z,1.63
2022-10-28T10:13:23.573Z,1.10
2022-10-28T10:15:55.786Z,1.77
2022-10-28T10:18:24.595Z,1.83
2022-10-28T10:20:53.501Z,1.77
2022-10-28T10:23:27.737Z,1.73
2022-10-28T10:25:55.950Z,1.90
2022-10-28T10:28:24.225Z,1.42
2022-10-28T10:30:56.943Z,1.60
2022-10-28T10:33:30.264Z,1.05
2022-10-28T10:36:29.624Z,1.88
2022-10-28T10:38:58.296Z,1.08
2022-10-28T10:41:36.544Z,1.30
2022-10-28T10:44:22.346Z,1.77
2022-10-28T10:46:55.938Z,1.42
2022-10-28T10:49:23.409Z,1.88
2022-10-28T10:51:55.289Z,1.25
2022-10-28T10:54:22.877Z,1.38
2022-10-28T10:56:50.377Z,1.52
2022-10-28T10:59:29.769Z,0.88
2022-10-28T11:01:58.573Z,1.13
2022-10-28T11:04:28.127Z,1.45
2022-10-28T11:06:56.584Z,1.42
2022-10-28T11:09:24.307Z,1.23
2022-10-28T11:11:56.082Z,1.20
2022-10-28T11:14:25.393Z,1.48
2022-10-28T11:16:54.036Z,1.00
2022-10-28T11:19:24.535Z,1.40
2022-10-28T11:22:01.518Z,1.38
2022-10-28T11:24:35.141Z,1.10
2022-10-28T11:27:12.101Z,1.27
2022-10-28T11:29:39.636Z,1.45
2022-10-28T11:32:33.347Z,1.10
2022-10-28T11:37:46.552Z,1.25
2022-10-28T11:40:33.147Z,1.05
2022-10-28T11:43:16.011Z,1.20
2022-10-28T11:45:51.725Z,1.27
2022-10-28T11:48:21.178Z,1.48
2022-10-28T11:51:07.244Z,1.20
2022-10-28T11:53:58.174Z,1.27
2022-10-28T11:56:29.357Z,1.55
2022-10-28T11:59:16.953Z,1.65
2022-10-28T12:01:44.544Z,1.98
2022-10-28T12:04:20.001Z,1.65
2022-10-28T12:06:50.424Z,1.00
2022-10-28T12:09:22.612Z,1.83
2022-10-28T12:11:59.724Z,1.27
2022-10-28T12:14:27.173Z,1.05
2022-10-28T12:16:54.588Z,1.42
2022-10-28T12:19:35.837Z,1.50
2022-10-28T12:22:03.279Z,1.77
2022-10-28T12:24:32.447Z,1.83
2022-10-28T12:27:01.676Z,2.05
2022-10-28T12:29:34.282Z,1.33
2022-10-28T12:32:04.170Z,1.25
2022-10-28T12:34:46.195Z,1.27
2022-10-28T12:37:17.187Z,2.13
2022-10-28T12:39:44.649Z,1.70
2022-10-28T12:42:12.391Z,0.98
2022-10-28T12:44:42.461Z,1.15
2022-10-28T12:47:34.429Z,1.38
2022-10-28T12:50:09.438Z,1.00
2022-10-28T12:52:46.219Z,1.42
2022-10-28T12:55:36.297Z,0.90
2022-10-28T12:58:27.018Z,1.70
2022-10-28T13:00:56.743Z,0.88
2022-10-28T13:03:24.446Z,0.80
2022-10-28T13:05:56.828Z,1.42
2022-10-28T13:08:33.571Z,2.25
2022-10-28T13:11:19.932Z,0.95
2022-10-28T13:14:18.002Z,1.42
2022-10-28T13:17:04.363Z,2.13
2022-10-28T13:19:50.554Z,0.80
2022-10-28T13:22:18.221Z,0.98
2022-10-28T13:24:45.664Z,1.00
2022-10-28T13:27:14.272Z,1.17
2022-10-28T13:29:43.877Z,1.02
2022-10-28T13:32:33.972Z,0.90
2022-10-28T13:35:14.283Z,0.95
2022-10-28T13:37:42.651Z,1.85
2022-10-28T13:40:34.489Z,1.15
2022-10-28T13:43:02.285Z,0.70
2022-10-28T13:45:46.440Z,0.90
2022-10-28T13:48:32.352Z,1.35
2022-10-28T13:51:06.484Z,1.05
2022-10-28T13:53:39.387Z,1.52
2022-10-28T13:56:43.772Z,1.35
2022-10-28T14:04:57.636Z,1.60
2022-10-28T14:10:21.447Z,0.50
2022-10-28T14:24:44.136Z,0.90
2022-10-28T14:35:13.418Z,1.20
2022-10-28T14:40:30.454Z,0.88
2022-10-28T14:54:01.706Z,1.10
2022-10-28T15:05:15.438Z,0.98
2022-10-28T15:07:45.787Z,1.10
2022-10-28T15:49:01.097Z,0.60
2022-10-28T16:42:07.429Z,0.93
2022-10-28T16:44:38.256Z,0.70
2022-10-28T16:59:00.268Z,1.02
2022-10-28T17:03:56.773Z,1.02
2022-10-28T17:06:24.326Z,0.63
2022-10-28T17:11:32.727Z,0.47
2022-10-28T17:19:34.180Z,0.63
2022-10-28T17:24:43.442Z,0.68
2022-10-28T17:27:10.931Z,0.98
2022-10-28T17:29:39.377Z,1.33
2022-10-28T17:32:10.089Z,0.52
2022-10-28T17:34:37.955Z,0.63
2022-10-28T17:37:06.680Z,1.17
2022-10-28T17:42:19.603Z,0.88
2022-10-28T17:44:47.231Z,0.80
2022-10-28T17:50:11.390Z,0.50
2022-10-28T18:01:12.622Z,0.73
2022-10-28T18:27:51.547Z,0.70
2022-10-28T18:30:19.256Z,0.80
2022-10-28T18:32:49.847Z,0.85
2022-10-28T18:38:02.061Z,0.90
2022-10-28T18:40:54.271Z,1.10
2022-10-28T18:43:30.011Z,0.80
2022-10-28T18:48:35.882Z,0.55
2022-10-28T18:51:07.420Z,0.80
2022-10-28T18:53:38.892Z,1.08
2022-10-28T18:56:08.242Z,1.10
2022-10-28T18:58:36.094Z,0.60
2022-10-28T19:01:04.820Z,2.13
2022-10-28T19:03:32.580Z,0.73
2022-10-28T19:24:59.393Z,0.77
2022-10-28T19:27:27.228Z,0.80
2022-10-28T19:30:06.666Z,1.15
2022-10-28T19:35:06.619Z,0.75
2022-10-28T19:37:59.821Z,2.33
2022-10-28T19:40:27.505Z,0.70
2022-10-28T19:42:55.346Z,0.82
2022-10-28T19:45:23.817Z,0.77
2022-10-28T19:47:52.102Z,1.05
2022-10-28T19:50:20.615Z,1.33
2022-10-28T19:52:49.449Z,0.85
2022-10-28T19:55:19.867Z,1.08
2022-10-28T19:57:50.330Z,1.15
2022-10-28T20:03:03.181Z,0.93
2022-10-28T20:05:31.126Z,0.90
2022-10-28T20:11:03.027Z,0.77
2022-10-28T20:13:30.755Z,1.65
2022-10-28T20:16:01.269Z,1.02
2022-10-28T20:18:29.936Z,0.60
2022-10-28T20:20:58.287Z,0.70
2022-10-28T20:23:26.073Z,0.40
2022-10-28T20:25:54.145Z,0.52
2022-10-28T20:28:22.032Z,0.40
2022-10-28T20:30:56.938Z,0.85
2022-10-28T20:33:25.499Z,0.50
2022-10-28T20:35:53.884Z,0.77
2022-10-28T20:38:21.638Z,0.70
2022-10-28T20:43:24.455Z,0.65
2022-10-28T20:45:54.899Z,0.55
2022-10-28T20:48:23.341Z,0.45
2022-10-28T20:53:36.051Z,0.68
2022-10-28T20:59:00.958Z,0.75
2022-10-28T21:01:33.095Z,0.70
2022-10-28T21:04:02.189Z,0.43
2022-10-28T21:06:30.295Z,0.50
2022-10-28T21:09:00.695Z,1.15
2022-10-28T21:14:03.094Z,0.95
2022-10-28T21:16:31.405Z,0.70
2022-10-28T21:19:00.038Z,0.65
2022-10-28T21:21:30.178Z,0.73
2022-10-28T21:23:57.908Z,0.90
2022-10-28T21:26:27.618Z,0.88
2022-10-28T21:28:58.186Z,0.50
2022-10-28T21:34:01.832Z,0.77
2022-10-28T21:36:32.550Z,0.70
2022-10-28T21:39:00.185Z,0.55
2022-10-28T21:41:28.009Z,0.60
2022-10-28T21:43:55.521Z,0.30
2022-10-28T21:46:23.880Z,0.40
2022-10-28T21:48:51.412Z,0.52
2022-10-28T21:51:19.116Z,0.43
2022-10-28T21:53:46.735Z,0.60
2022-10-28T21:56:18.181Z,0.40
2022-10-28T21:58:47.643Z,0.40
2022-10-28T22:01:15.361Z,0.45
2022-10-28T22:03:43.940Z,0.60
2022-10-28T22:09:01.349Z,1.13
2022-10-28T22:11:29.871Z,0.90
2022-10-28T22:14:00.661Z,0.90
2022-10-28T22:16:28.951Z,0.63
2022-10-28T22:18:57.975Z,0.75
2022-10-28T22:21:27.385Z,1.00
2022-10-28T22:23:55.235Z,1.15
2022-10-28T22:26:27.543Z,1.35
2022-10-28T22:28:55.293Z,0.63
2022-10-28T22:31:24.332Z,1.35
2022-10-28T22:33:51.996Z,1.25
2022-10-28T22:36:20.857Z,1.00
2022-10-28T22:38:48.615Z,1.13
2022-10-28T22:41:19.278Z,0.80
2022-10-28T22:43:48.681Z,1.05
2022-10-28T22:46:17.668Z,1.73
2022-10-28T22:48:46.156Z,1.00
2022-10-28T22:53:42.481Z,1.27
2022-10-28T22:56:11.980Z,0.90
2022-10-28T22:58:39.456Z,1.00
2022-10-28T23:03:52.731Z,1.23
2022-10-28T23:06:21.309Z,1.02
2022-10-28T23:08:48.934Z,0.88
2022-10-28T23:11:18.405Z,0.80
2022-10-28T23:13:46.725Z,0.85
2022-10-28T23:16:15.441Z,0.80
2022-10-28T23:18:43.270Z,1.10
2022-10-28T23:21:14.923Z,1.30
2022-10-28T23:23:42.834Z,1.42
2022-10-28T23:26:11.341Z,0.77
2022-10-28T23:28:38.767Z,0.88
2022-10-28T23:31:07.078Z,1.45
2022-10-28T23:33:34.928Z,1.10
2022-10-28T23:36:04.459Z,1.30
2022-10-28T23:38:32.496Z,1.00
2022-10-28T23:41:04.043Z,1.20
2022-10-28T23:43:32.192Z,1.30
2022-10-28T23:45:59.899Z,1.02
2022-10-28T23:48:27.804Z,1.20
2022-10-28T23:50:55.334Z,1.20
2022-10-28T23:53:23.864Z,1.42
2022-10-28T23:55:51.743Z,1.23
2022-10-28T23:58:20.022Z,1.23
